Time;durP1;ratioP1;P1;durP2;ratioP2;P2;SDS_P1;SDS_P2;PMS_P1;PMS_P2;Temp;Humidity;BMP_temperature;BMP_pressure;BME280_temperature;BME280_humidity;BME280_pressure;Samples;Min_cycle;Max_cycle;Signal;HPM_P1;HPM_P2
2022/05/14 00:01:53;;;;;;;;;4.50;4.50;;;;;14.68;61.35;101964.63;5041667;28;9525;-65
2022/05/14 00:04:21;;;;;;;;;4.00;3.75;;;;;14.67;61.58;101965.66;5056451;28;9553;-64
2022/05/14 00:06:47;;;;;;;;;4.00;4.00;;;;;14.64;61.64;101957.91;5062778;28;9614;-65
2022/05/14 00:09:14;;;;;;;;;1.50;1.50;;;;;14.64;61.57;101957.09;5059569;28;9720;-64
2022/05/14 00:14:25;;;;;;;;;4.25;3.50;;;;;14.58;62.32;101958.69;5041118;28;9480;-65
2022/05/14 00:16:52;;;;;;;;;6.00;5.00;;;;;14.56;62.50;101968.88;5049425;28;9591;-65
2022/05/14 00:19:19;;;;;;;;;6.00;3.75;;;;;14.57;62.50;101965.13;5045409;28;9599;-65
2022/05/14 00:21:46;;;;;;;;;3.50;2.00;;;;;14.58;62.54;101962.25;5049870;28;9449;-66
2022/05/14 00:24:12;;;;;;;;;5.00;3.00;;;;;14.55;62.70;101968.06;5045342;28;9473;-66
2022/05/14 00:26:39;;;;;;;;;5.00;4.25;;;;;14.55;62.66;101961.78;5057455;28;9430;-66
2022/05/14 00:29:07;;;;;;;;;4.00;4.00;;;;;14.53;62.66;101953.84;5063964;28;9527;-66
2022/05/14 00:31:34;;;;;;;;;2.75;2.75;;;;;14.53;62.71;101959.25;5061936;28;9536;-66
2022/05/14 00:34:02;;;;;;;;;3.00;2.75;;;;;14.52;62.66;101957.59;5048864;28;9440;-66
2022/05/14 00:36:28;;;;;;;;;3.50;3.50;;;;;14.52;62.62;101962.19;5054755;28;9447;-65
2022/05/14 00:38:55;;;;;;;;;3.00;2.75;;;;;14.50;62.81;101958.81;5057297;28;9544;-65
2022/05/14 00:41:21;;;;;;;;;6.75;4.50;;;;;14.48;62.79;101958.97;5066092;28;9675;-66
2022/05/14 00:43:52;;;;;;;;;5.00;5.00;;;;;14.45;62.81;101964.78;5057064;28;9410;-66
2022/05/14 00:46:26;;;;;;;;;3.50;3.50;;;;;14.47;62.85;101964.59;5056450;28;9630;-65
2022/05/14 00:48:57;;;;;;;;;3.00;3.00;;;;;14.45;62.92;101963.94;5056966;28;9509;-66
2022/05/14 00:51:32;;;;;;;;;4.50;4.50;;;;;14.42;63.03;101965.19;5060657;28;9614;-65
2022/05/14 00:54:06;;;;;;;;;2.25;2.25;;;;;14.42;63.00;101961.59;5054064;28;9588;-65
2022/05/14 00:56:36;;;;;;;;;3.75;3.75;;;;;14.39;63.16;101957.44;5059846;28;10769;-66
2022/05/14 00:59:10;;;;;;;;;5.50;5.50;;;;;14.40;63.23;101960.97;5064196;28;9534;-65
2022/05/14 01:01:37;;;;;;;;;5.50;4.00;;;;;14.37;63.29;101956.78;5078230;28;9526;-65
2022/05/14 01:04:06;;;;;;;;;7.50;6.00;;;;;14.37;63.38;101959.47;5065695;28;9470;-65
2022/05/14 01:06:34;;;;;;;;;4.00;2.00;;;;;14.36;63.48;101963.22;5057436;28;9579;-65
2022/05/14 01:09:04;;;;;;;;;5.50;3.25;;;;;14.33;63.85;101966.31;5059655;28;9681;-66
2022/05/14 01:11:33;;;;;;;;;6.00;6.00;;;;;14.33;63.68;101969.84;5062573;28;9584;-65
2022/05/14 01:14:00;;;;;;;;;3.50;3.00;;;;;14.33;63.80;101964.44;5053946;28;9684;-66
2022/05/14 01:16:30;;;;;;;;;4.75;4.00;;;;;14.31;63.74;101961.09;5052883;28;9679;-65
2022/05/14 01:18:57;;;;;;;;;5.50;3.00;;;;;14.30;64.10;101961.28;5060640;28;9630;-66
2022/05/14 01:21:39;;;;;;;;;6.50;3.75;;;;;14.32;64.01;101972.75;5068386;28;9759;-66
2022/05/14 01:27:10;;;;;;;;;7.25;5.00;;;;;14.30;64.15;101972.97;5049993;28;9746;-66
2022/05/14 01:29:38;;;;;;;;;3.75;2.25;;;;;14.29;64.07;101971.28;5052496;28;9861;-66
2022/05/14 01:32:08;;;;;;;;;4.50;4.00;;;;;14.26;64.48;101966.25;5060098;28;9721;-66
2022/05/14 01:34:36;;;;;;;;;6.75;5.00;;;;;14.23;64.37;101968.50;5052858;28;9578;-66
2022/05/14 01:37:04;;;;;;;;;5.00;5.00;;;;;14.21;64.53;101974.09;5061075;28;9779;-66
2022/05/14 01:39:31;;;;;;;;;5.75;5.00;;;;;14.19;64.51;101964.50;5051347;28;9729;-66
2022/05/14 01:41:58;;;;;;;;;3.00;3.00;;;;;14.17;64.64;101977.38;5068365;28;9974;-64
2022/05/14 01:44:24;;;;;;;;;4.00;4.00;;;;;14.12;64.80;101969.00;5042715;28;9696;-66
2022/05/14 01:46:51;;;;;;;;;5.50;5.00;;;;;14.10;64.77;101966.47;5055142;28;9842;-66
2022/05/14 01:49:18;;;;;;;;;3.75;2.75;;;;;14.07;64.76;101967.69;5051299;28;9850;-66
2022/05/14 01:51:46;;;;;;;;;8.25;7.25;;;;;14.06;64.90;101971.44;5070474;28;9741;-66
2022/05/14 01:54:13;;;;;;;;;8.25;5.50;;;;;14.02;65.00;101980.97;5038030;28;9856;-66
2022/05/14 01:56:40;;;;;;;;;2.50;1.75;;;;;14.01;65.20;101978.44;5056388;28;9754;-67
2022/05/14 01:59:07;;;;;;;;;3.00;3.00;;;;;14.02;65.35;101980.13;5070962;28;9510;-66
2022/05/14 02:01:36;;;;;;;;;6.00;6.00;;;;;14.00;65.39;101988.41;5063452;28;9793;-66
2022/05/14 02:04:10;;;;;;;;;4.25;3.00;;;;;14.01;64.92;101986.53;5044229;28;9827;-66
2022/05/14 02:06:38;;;;;;;;;5.75;5.75;;;;;13.98;65.19;101989.66;5061230;28;10340;-66
2022/05/14 02:09:13;;;;;;;;;3.75;2.75;;;;;13.94;65.24;101983.78;5051541;28;9736;-66
2022/05/14 02:11:43;;;;;;;;;7.00;4.75;;;;;13.92;65.21;101977.69;5045974;28;9799;-66
2022/05/14 02:14:23;;;;;;;;;6.00;6.00;;;;;13.89;65.28;101985.34;5060405;28;10536;-66
2022/05/14 02:16:49;;;;;;;;;5.75;5.00;;;;;13.86;65.38;101981.16;5073089;28;9668;-65
2022/05/14 02:19:17;;;;;;;;;6.75;6.75;;;;;13.82;65.36;101972.59;5043926;28;9931;-66
2022/05/14 02:21:44;;;;;;;;;5.75;2.75;;;;;13.82;65.68;101978.00;5054649;28;9694;-66
2022/05/14 02:24:12;;;;;;;;;10.25;6.50;;;;;13.79;65.78;101975.66;5046229;28;9653;-66
2022/05/14 02:26:39;;;;;;;;;8.75;6.75;;;;;13.80;65.82;101971.09;5052279;28;9846;-65
2022/05/14 02:29:06;;;;;;;;;7.50;6.75;;;;;13.80;65.81;101977.34;5054608;28;9702;-66
2022/05/14 02:31:33;;;;;;;;;6.75;5.75;;;;;13.80;65.81;101979.19;5060278;28;10019;-65
2022/05/14 02:34:00;;;;;;;;;6.00;5.00;;;;;13.79;65.85;101978.38;5042944;28;9860;-65
2022/05/14 02:36:27;;;;;;;;;4.50;4.50;;;;;13.77;65.84;101979.56;5059335;28;9997;-65
2022/05/14 02:38:54;;;;;;;;;6.50;6.50;;;;;13.75;65.86;101974.34;5050194;28;9754;-65
2022/05/14 02:41:20;;;;;;;;;3.25;3.25;;;;;13.72;66.08;101985.53;5043069;28;9771;-66
2022/05/14 02:43:47;;;;;;;;;5.75;5.75;;;;;13.71;65.98;101986.59;5066502;28;9840;-65
2022/05/14 02:46:14;;;;;;;;;6.00;6.00;;;;;13.69;65.84;101985.91;5042147;28;10564;-65
2022/05/14 02:48:41;;;;;;;;;5.25;3.00;;;;;13.66;66.09;101978.19;5041669;28;9768;-65
2022/05/14 02:51:08;;;;;;;;;5.00;5.00;;;;;13.65;66.13;101979.19;5060526;28;9840;-66
2022/05/14 02:53:34;;;;;;;;;6.75;4.50;;;;;13.64;65.99;101973.97;5064701;28;10706;-65
2022/05/14 02:56:01;;;;;;;;;5.50;5.50;;;;;13.62;66.08;101982.28;5048872;28;10544;-66
2022/05/14 03:01:16;;;;;;;;;7.75;6.75;;;;;13.59;66.12;101990.78;5067940;28;9773;-66
2022/05/14 03:03:43;;;;;;;;;7.00;7.00;;;;;13.57;65.94;101998.22;5056404;28;9845;-67
2022/05/14 03:06:09;;;;;;;;;7.50;5.75;;;;;13.53;66.20;101992.38;5054562;28;9992;-65
2022/05/14 03:08:37;;;;;;;;;11.25;9.25;;;;;13.52;66.13;101984.41;5042117;28;9712;-65
2022/05/14 03:11:04;;;;;;;;;8.00;8.00;;;;;13.49;66.11;101973.97;5055671;28;10046;-65
2022/05/14 03:13:31;;;;;;;;;7.50;7.50;;;;;13.50;66.29;101983.78;5045676;28;10015;-65
2022/05/14 03:15:58;;;;;;;;;12.50;7.00;;;;;13.47;66.34;101981.44;5046404;28;9886;-66
2022/05/14 03:18:25;;;;;;;;;8.75;7.50;;;;;13.44;66.26;101987.22;5048757;28;9915;-66
2022/05/14 03:20:51;;;;;;;;;10.75;8.75;;;;;13.42;66.24;101989.28;5051798;28;9894;-66
2022/05/14 03:23:18;;;;;;;;;10.00;10.00;;;;;13.41;66.56;101982.16;5057506;28;10146;-66
2022/05/14 03:25:45;;;;;;;;;9.00;9.00;;;;;13.39;66.54;101978.81;5064740;28;9830;-66
2022/05/14 03:28:12;;;;;;;;;11.00;10.50;;;;;13.36;66.41;101978.16;5072990;28;10546;-66
2022/05/14 03:30:40;;;;;;;;;9.00;9.00;;;;;13.35;66.52;101990.00;5057442;28;10055;-66
2022/05/14 03:33:06;;;;;;;;;5.75;5.00;;;;;13.34;66.47;101987.50;5048653;28;10034;-66
2022/05/14 03:35:33;;;;;;;;;9.50;9.50;;;;;13.31;66.42;101985.16;5063031;28;9992;-66
2022/05/14 03:37:59;;;;;;;;;8.25;8.25;;;;;13.28;66.20;101989.06;5049923;28;10077;-66
2022/05/14 03:40:26;;;;;;;;;8.50;7.00;;;;;13.25;66.22;101991.31;5054560;28;10013;-66
2022/05/14 03:42:54;;;;;;;;;8.00;8.00;;;;;13.24;66.32;101995.84;5038336;28;10694;-66
2022/05/14 03:45:21;;;;;;;;;11.00;8.00;;;;;13.22;66.79;101988.94;5049695;28;10004;-65
2022/05/14 03:47:48;;;;;;;;;9.25;8.75;;;;;13.23;66.79;101982.53;5053084;28;10093;-66
2022/05/14 03:50:15;;;;;;;;;10.00;10.00;;;;;13.21;66.93;101998.09;5053782;28;9920;-66
2022/05/14 03:52:42;;;;;;;;;10.50;10.00;;;;;13.16;66.91;101993.19;5057030;28;10166;-65
2022/05/14 03:55:09;;;;;;;;;11.75;11.75;;;;;13.13;66.86;101996.28;5056262;28;9992;-66
2022/05/14 03:57:36;;;;;;;;;13.75;10.00;;;;;13.12;67.26;101994.59;5062734;28;9985;-66
2022/05/14 04:00:11;;;;;;;;;13.00;11.00;;;;;13.12;67.21;101989.19;5064248;28;9994;-66
2022/05/14 04:02:43;;;;;;;;;13.75;10.25;;;;;13.10;66.96;101986.66;5031662;28;9942;-66
2022/05/14 04:05:10;;;;;;;;;9.25;8.25;;;;;13.11;67.21;101998.31;5065339;28;10109;-66
2022/05/14 04:07:38;;;;;;;;;9.00;7.25;;;;;13.10;67.24;102002.88;5060020;28;10137;-66
2022/05/14 04:10:05;;;;;;;;;10.25;10.00;;;;;13.09;67.06;102003.91;5048713;28;10109;-66
2022/05/14 04:12:33;;;;;;;;;6.75;6.75;;;;;13.10;67.02;102005.59;5087113;22;9999;-66
2022/05/14 04:14:59;;;;;;;;;7.50;6.75;;;;;13.10;67.13;102005.59;5038808;28;9976;-66
2022/05/14 04:17:26;;;;;;;;;13.50;13.50;;;;;13.10;67.17;102011.00;5045770;28;10280;-67
2022/05/14 04:19:54;;;;;;;;;11.50;11.50;;;;;13.10;66.91;102005.59;5051034;28;9986;-66
2022/05/14 04:22:21;;;;;;;;;9.50;9.00;;;;;13.10;67.50;101996.66;5059501;28;10103;-65
2022/05/14 04:24:49;;;;;;;;;10.00;7.50;;;;;13.09;67.15;102003.91;5027467;28;10250;-67
2022/05/14 04:27:16;;;;;;;;;12.50;12.50;;;;;13.08;67.74;102012.19;5031928;28;9982;-66
2022/05/14 04:29:43;;;;;;;;;9.00;8.00;;;;;13.07;67.65;102024.88;5021679;28;10236;-67
2022/05/14 04:32:09;;;;;;;;;10.25;9.75;;;;;13.09;67.59;102019.31;5024894;28;10098;-65
2022/05/14 04:34:40;;;;;;;;;10.75;10.75;;;;;13.09;67.63;102011.19;5041636;28;11062;-66
2022/05/14 04:37:07;;;;;;;;;10.25;10.25;;;;;13.10;67.72;102018.28;5033718;28;10143;-65
2022/05/14 04:39:34;;;;;;;;;9.25;7.75;;;;;13.10;67.43;102012.88;5034207;28;10179;-66
2022/05/14 04:42:03;;;;;;;;;12.50;11.25;;;;;13.14;67.63;102030.41;5040168;28;10018;-65
2022/05/14 04:44:35;;;;;;;;;6.00;6.00;;;;;13.17;67.48;102037.31;5044661;28;10093;-65
2022/05/14 04:47:02;;;;;;;;;10.50;9.50;;;;;13.20;67.69;102040.47;5029588;28;9872;-66
2022/05/14 04:49:29;;;;;;;;;11.25;8.75;;;;;13.24;67.45;102047.22;5019768;28;10169;-66
2022/05/14 04:51:56;;;;;;;;;11.50;9.25;;;;;13.29;67.42;102039.44;5034470;28;10084;-65
2022/05/14 04:54:24;;;;;;;;;10.75;8.75;;;;;13.31;67.11;102033.84;5039294;28;10085;-65
2022/05/14 04:56:50;;;;;;;;;8.50;7.00;;;;;13.33;67.14;102035.34;5031449;28;9835;-66
2022/05/14 04:59:17;;;;;;;;;10.50;10.50;;;;;13.31;67.16;102042.78;5027705;28;10074;-67
2022/05/14 05:04:31;;;;;;;;;9.25;8.25;;;;;13.36;67.34;102043.06;5037765;28;10040;-66
2022/05/14 05:06:58;;;;;;;;;13.25;10.25;;;;;13.41;67.20;102044.38;5030673;28;10093;-66
2022/05/14 05:09:25;;;;;;;;;11.50;9.50;;;;;13.41;67.26;102037.13;5027940;28;10163;-66
2022/05/14 05:11:51;;;;;;;;;9.00;9.00;;;;;13.42;67.09;102038.81;5031937;28;10247;-63
2022/05/14 05:14:18;;;;;;;;;9.25;9.25;;;;;13.43;67.21;102039.63;5030941;28;9909;-64
2022/05/14 05:16:45;;;;;;;;;12.25;10.00;;;;;13.45;67.22;102042.97;5032221;28;10728;-67
2022/05/14 05:19:11;;;;;;;;;7.00;6.00;;;;;13.42;67.24;102048.78;5022134;28;9993;-62
2022/05/14 05:21:39;;;;;;;;;8.50;8.25;;;;;13.44;67.30;102057.53;5030989;28;9840;-64
2022/05/14 05:24:05;;;;;;;;;15.50;12.00;;;;;13.46;67.50;102053.63;5052398;28;9906;-65
2022/05/14 05:26:33;;;;;;;;;8.75;7.50;;;;;13.49;67.22;102053.28;5030685;28;10042;-67
2022/05/14 05:28:59;;;;;;;;;11.25;9.25;;;;;13.52;67.37;102060.16;5038563;28;10692;-66
2022/05/14 05:31:26;;;;;;;;;12.50;9.00;;;;;13.53;67.42;102057.31;5039046;28;10026;-65
2022/05/14 05:33:53;;;;;;;;;10.00;9.00;;;;;13.58;67.38;102065.69;5039319;28;9991;-65
2022/05/14 05:36:20;;;;;;;;;5.00;5.00;;;;;13.63;67.32;102073.25;5023616;28;10095;-66
2022/05/14 05:38:46;;;;;;;;;6.75;6.75;;;;;13.68;67.22;102070.81;5028514;28;10686;-65
2022/05/14 05:41:13;;;;;;;;;13.00;11.00;;;;;13.74;67.21;102078.22;5038062;28;10106;-66
2022/05/14 05:43:39;;;;;;;;;10.50;9.50;;;;;13.78;67.12;102082.25;5023784;28;10137;-65
2022/05/14 05:46:06;;;;;;;;;6.25;6.25;;;;;13.87;67.07;102083.00;5026197;28;10031;-66
2022/05/14 05:48:32;;;;;;;;;14.00;10.50;;;;;13.96;67.07;102079.16;5023762;28;9929;-65
2022/05/14 05:50:59;;;;;;;;;7.50;7.25;;;;;14.07;67.24;102083.28;5040555;28;10148;-66
2022/05/14 05:56:46;;;;;;;;;4.50;4.50;;;;;14.21;66.93;102081.59;5035635;28;9919;-67
2022/05/14 05:58:57;;;;;;;;;13.25;10.25;;;;;14.51;66.22;102093.28;5040632;28;9751;-66
2022/05/14 06:01:23;;;;;;;;;8.25;7.25;;;;;14.63;66.00;102094.47;5032733;28;9893;-65
2022/05/14 06:03:51;;;;;;;;;10.50;10.50;;;;;14.74;65.64;102099.34;5031328;28;9966;-65
2022/05/14 06:06:19;;;;;;;;;12.00;10.25;;;;;14.85;65.24;102100.75;5033490;28;9624;-66
2022/05/14 06:08:47;;;;;;;;;14.50;12.50;;;;;14.92;64.97;102095.41;5015382;28;9771;-66
2022/05/14 06:11:14;;;;;;;;;15.75;12.50;;;;;14.98;64.68;102097.31;5029520;28;9753;-66
2022/05/14 06:13:43;;;;;;;;;9.25;7.50;;;;;15.01;64.54;102105.09;5030265;28;9755;-64
2022/05/14 06:16:10;;;;;;;;;6.50;6.50;;;;;15.07;64.71;102113.31;5021503;28;9552;-66
2022/05/14 06:18:37;;;;;;;;;11.25;8.00;;;;;15.15;64.58;102114.19;5027735;28;9678;-65
2022/05/14 06:21:05;;;;;;;;;7.50;7.50;;;;;15.23;64.23;102106.78;5023365;28;9705;-68
2022/05/14 06:23:33;;;;;;;;;12.75;12.25;;;;;15.29;63.87;102102.44;5031754;28;9601;-67
2022/05/14 06:25:59;;;;;;;;;9.75;7.25;;;;;15.32;63.66;102105.63;5027962;28;9741;-64
2022/05/14 06:28:26;;;;;;;;;9.50;7.75;;;;;15.35;63.75;102101.66;5028562;28;9596;-66
2022/05/14 06:30:52;;;;;;;;;9.75;8.00;;;;;15.41;63.44;102106.31;5034235;28;9552;-66
2022/05/14 06:33:19;;;;;;;;;8.00;6.00;;;;;15.45;63.41;102112.19;5024803;28;9545;-66
2022/05/14 06:35:46;;;;;;;;;7.50;7.00;;;;;15.50;63.54;102115.97;5011862;28;9464;-66
2022/05/14 06:38:16;;;;;;;;;7.00;6.00;;;;;15.53;63.20;102121.03;5024202;28;9473;-67
2022/05/14 06:40:43;;;;;;;;;6.00;6.00;;;;;15.55;62.84;102124.38;5037162;28;9428;-66
2022/05/14 06:43:09;;;;;;;;;8.00;6.33;;;;;15.58;62.86;102125.88;5022532;28;9320;-67
2022/05/14 06:45:36;;;;;;;;;6.50;6.50;;;;;15.60;62.92;102121.09;5038525;28;9365;-64
2022/05/14 06:48:03;;;;;;;;;9.00;6.50;;;;;15.56;62.80;102131.50;5037259;28;9553;-67
2022/05/14 06:50:33;;;;;;;;;7.00;7.00;;;;;15.52;63.23;102132.09;5040348;28;9517;-66
2022/05/14 06:53:02;;;;;;;;;13.33;10.33;;;;;15.54;63.04;102130.84;5020828;28;9450;-65
2022/05/14 06:55:34;;;;;;;;;8.00;7.00;;;;;15.60;63.22;102134.66;5023302;28;9542;-66
2022/05/14 06:58:00;;;;;;;;;8.67;6.00;;;;;15.60;62.82;102134.66;5024610;28;9364;-64
2022/05/14 07:00:27;;;;;;;;;6.75;6.75;;;;;15.62;62.92;102135.28;5026147;28;9589;-68
2022/05/14 07:06:37;;;;;;;;;7.75;7.00;;;;;15.67;62.89;102134.72;5029479;28;9485;-65
2022/05/14 07:08:29;;;;;;;;;8.00;8.00;;;;;15.78;62.79;102137.75;5022118;28;9215;-65
2022/05/14 07:10:55;;;;;;;;;4.00;4.00;;;;;15.81;62.49;102128.38;5023919;28;9454;-64
2022/05/14 07:13:22;;;;;;;;;7.00;6.33;;;;;15.85;62.42;102132.38;5015204;28;9321;-66
2022/05/14 07:15:48;;;;;;;;;8.33;7.33;;;;;15.90;61.79;102140.78;5026221;28;9236;-65
2022/05/14 07:18:15;;;;;;;;;5.67;5.00;;;;;15.93;61.66;102134.13;5024301;28;9313;-66
2022/05/14 07:20:41;;;;;;;;;6.00;6.00;;;;;15.96;61.48;102130.97;5031359;28;9144;-64
2022/05/14 07:23:09;;;;;;;;;6.67;6.67;;;;;16.01;61.46;102133.97;5029996;28;9140;-65
2022/05/14 07:25:35;;;;;;;;;8.00;7.00;;;;;16.04;60.94;102128.09;5030658;28;9312;-66
2022/05/14 07:28:02;;;;;;;;;8.00;6.33;;;;;16.09;60.31;102136.53;5035047;28;9244;-66
2022/05/14 07:30:28;;;;;;;;;3.67;2.00;;;;;16.18;60.00;102143.47;5041334;28;9150;-68
2022/05/14 07:32:55;;;;;;;;;3.00;3.00;;;;;16.23;59.36;102143.69;5018124;28;9161;-65
2022/05/14 07:35:22;;;;;;;;;7.00;3.00;;;;;16.27;58.95;102138.72;5023525;28;8998;-68
2022/05/14 07:37:55;;;;;;;;;4.00;3.33;;;;;16.28;58.13;102133.06;5027145;28;9074;-67
2022/05/14 07:40:25;;;;;;;;;7.33;6.00;;;;;16.27;56.61;102144.97;5029573;28;9144;-68
2022/05/14 07:43:05;;;;;;;;;4.33;4.33;;;;;16.29;56.27;102150.22;5028230;28;9289;-65
2022/05/14 07:46:00;;;;;;;;;3.00;3.00;;;;;16.34;55.94;102145.03;5029395;28;9239;-66
2022/05/14 07:48:35;;;;;;;;;5.00;3.00;;;;;16.37;55.32;102138.38;5026411;28;9016;-65
2022/05/14 07:51:04;;;;;;;;;6.67;4.67;;;;;16.41;55.27;102154.06;5027656;28;9102;-64
2022/05/14 07:53:31;;;;;;;;;12.33;6.67;;;;;16.49;54.58;102150.34;5032883;28;9236;-65
2022/05/14 07:56:01;;;;;;;;;6.67;3.67;;;;;16.51;53.01;102143.66;5029480;28;9058;-65
2022/05/14 07:58:28;;;;;;;;;3.00;3.00;;;;;16.55;53.00;102144.09;5030153;28;9053;-65
2022/05/14 08:00:56;;;;;;;;;2.33;1.67;;;;;16.56;52.28;102149.31;5029613;28;9239;-66
2022/05/14 08:03:24;;;;;;;;;7.00;6.67;;;;;16.63;52.24;102153.94;5025414;28;9055;-66
2022/05/14 08:05:56;;;;;;;;;6.67;6.00;;;;;16.67;51.67;102156.06;5029122;28;9219;-66
2022/05/14 08:08:23;;;;;;;;;4.33;3.00;;;;;16.73;51.57;102154.44;5030505;28;9216;-66
2022/05/14 08:10:51;;;;;;;;;4.33;3.67;;;;;16.80;51.48;102153.41;5029475;28;8997;-66
2022/05/14 08:13:20;;;;;;;;;7.00;5.33;;;;;16.85;51.43;102154.69;5023879;28;9009;-66
2022/05/14 08:15:48;;;;;;;;;4.33;4.33;;;;;16.86;51.54;102150.94;5029149;28;9240;-65
2022/05/14 08:18:16;;;;;;;;;3.33;3.33;;;;;16.84;51.13;102155.72;5029901;28;9072;-64
2022/05/14 08:20:44;;;;;;;;;2.67;2.67;;;;;16.80;50.75;102144.41;5026102;28;9040;-66
2022/05/14 08:26:03;;;;;;;;;3.00;3.00;;;;;16.90;50.54;102150.34;5029054;28;9211;-68
2022/05/14 08:28:30;;;;;;;;;3.67;3.00;;;;;16.96;50.69;102145.94;5030680;28;9177;-67
2022/05/14 08:30:57;;;;;;;;;4.67;2.00;;;;;17.02;50.83;102147.84;5021164;28;9053;-68
2022/05/14 08:33:24;;;;;;;;;6.00;5.00;;;;;17.22;50.29;102148.75;5028789;28;8902;-67
2022/05/14 08:35:50;;;;;;;;;8.00;7.00;;;;;17.25;49.08;102151.03;5043975;28;9083;-65
2022/05/14 08:38:17;;;;;;;;;5.33;3.67;;;;;17.20;48.71;102142.66;5029630;28;9075;-65
2022/05/14 08:40:52;;;;;;;;;6.00;5.00;;;;;17.10;48.83;102142.22;5029853;28;9524;-65
2022/05/14 08:43:42;;;;;;;;;7.00;3.67;;;;;16.97;49.14;102159.31;5022379;28;9234;-67
2022/05/14 08:46:16;;;;;;;;;2.00;2.00;;;;;16.95;49.77;102160.59;5027653;28;9063;-65
2022/05/14 08:48:48;;;;;;;;;4.33;4.33;;;;;16.91;49.90;102157.44;5016520;28;9638;-64
2022/05/14 08:51:18;;;;;;;;;3.33;2.67;;;;;17.01;49.61;102154.31;5024786;28;9090;-65
2022/05/14 08:53:47;;;;;;;;;4.33;4.33;;;;;17.06;49.07;102146.41;5033160;28;9002;-66
2022/05/14 08:56:24;;;;;;;;;1.00;1.00;;;;;17.09;48.65;102154.13;5033230;28;10322;-66
2022/05/14 08:59:06;;;;;;;;;2.67;2.67;;;;;17.19;48.65;102159.19;5025159;28;9008;-67
2022/05/14 09:01:40;;;;;;;;;3.33;3.33;;;;;17.23;48.39;102160.47;5033447;28;8911;-65
2022/05/14 09:04:09;;;;;;;;;3.00;3.00;;;;;17.26;48.00;102150.00;5015681;28;8978;-67
2022/05/14 09:06:38;;;;;;;;;3.67;3.00;;;;;17.33;48.21;102151.88;5032036;28;9780;-66
2022/05/14 09:09:08;;;;;;;;;2.00;2.00;;;;;17.38;48.31;102149.38;5032856;28;8925;-67
2022/05/14 09:11:43;;;;;;;;;3.00;3.00;;;;;17.50;48.42;102155.88;5032536;28;8971;-67
2022/05/14 09:14:39;;;;;;;;;5.67;5.33;;;;;17.73;47.85;102153.59;5024095;28;8894;-67
2022/05/14 09:17:16;;;;;;;;;4.67;2.67;;;;;17.93;47.39;102156.34;5032100;28;9022;-66
2022/05/14 09:19:44;;;;;;;;;3.75;3.75;;;;;18.06;47.73;102155.47;5032917;28;8912;-65
2022/05/14 09:22:26;;;;;;;;;3.00;3.00;;;;;18.24;47.15;102155.66;5019424;28;8911;-67
2022/05/14 09:24:53;;;;;;;;;4.25;4.25;;;;;18.31;46.65;102152.06;5023407;28;8898;-67
2022/05/14 09:27:41;;;;;;;;;2.50;2.50;;;;;18.27;46.98;102151.66;5022438;28;8858;-67
2022/05/14 09:30:21;;;;;;;;;4.25;4.00;;;;;18.33;47.16;102152.72;5024094;28;8844;-65
2022/05/14 09:32:49;;;;;;;;;4.25;4.25;;;;;18.40;46.31;102151.63;5023379;28;9592;-67
2022/05/14 09:35:22;;;;;;;;;4.00;4.00;;;;;18.46;46.54;102158.13;5032170;28;8894;-66
2022/05/14 09:37:50;;;;;;;;;7.00;6.00;;;;;18.51;45.66;102163.75;5032426;28;8831;-66
2022/05/14 09:40:24;;;;;;;;;4.50;4.50;;;;;18.45;44.94;102151.81;5028980;28;8906;-64
2022/05/14 09:43:07;;;;;;;;;8.67;6.00;;;;;18.41;45.77;102156.03;5020824;28;8839;-66
2022/05/14 09:45:36;;;;;;;;;5.50;4.00;;;;;18.48;46.17;102150.56;5020423;28;8915;-64
2022/05/14 09:48:19;;;;;;;;;3.25;3.00;;;;;18.49;46.65;102153.06;5012536;28;8916;-66
2022/05/14 09:51:00;;;;;;;;;6.50;6.50;;;;;18.55;46.81;102162.28;5030372;28;8899;-67
2022/05/14 09:53:41;;;;;;;;;10.00;7.00;;;;;18.71;45.72;102164.56;5032500;28;8829;-66
2022/05/14 09:56:26;;;;;;;;;7.25;6.00;;;;;18.84;45.06;102163.69;5023984;28;8892;-66
2022/05/14 09:59:10;;;;;;;;;5.50;5.50;;;;;18.78;45.89;102159.06;5047080;28;8836;-66
2022/05/14 10:01:46;;;;;;;;;6.00;6.00;;;;;18.78;45.63;102159.06;5032443;28;9531;-66
2022/05/14 10:04:18;;;;;;;;;7.67;7.67;;;;;18.92;44.69;102171.63;5031647;28;8829;-66
2022/05/14 10:06:55;;;;;;;;;6.50;5.25;;;;;19.07;44.93;102173.22;5031953;28;9756;-66
2022/05/14 10:09:34;;;;;;;;;2.00;2.00;;;;;19.06;45.38;102166.09;5030858;28;9468;-66
2022/05/14 10:12:28;;;;;;;;;7.50;6.00;;;;;19.00;45.68;102162.34;5025237;28;8825;-65
2022/05/14 10:15:13;;;;;;;;;6.50;4.50;;;;;18.86;45.45;102166.19;5073276;22;8924;-65
2022/05/14 10:17:49;;;;;;;;;7.00;6.00;;;;;18.71;45.07;102170.00;5051554;28;8888;-64
2022/05/14 10:20:34;;;;;;;;;6.00;6.00;;;;;18.56;44.71;102165.88;5051617;28;8876;-65
2022/05/14 10:27:05;;;;;;;;;4.75;3.25;;;;;18.50;47.06;102170.25;5042910;28;8832;-63
2022/05/14 10:29:56;;;;;;;;;7.00;3.50;;;;;18.70;46.39;102175.69;5039321;28;9562;-65
2022/05/14 10:32:29;;;;;;;;;4.00;4.00;;;;;18.86;45.90;102169.75;5051628;28;8904;-65
2022/05/14 10:35:18;;;;;;;;;4.50;4.50;;;;;19.08;45.71;102166.69;5050599;28;9572;-66
2022/05/14 10:38:14;;;;;;;;;4.25;3.25;;;;;19.30;44.81;102167.19;5039940;28;8876;-65
2022/05/14 10:40:51;;;;;;;;;7.00;6.50;;;;;19.17;43.69;102170.84;5040739;28;8855;-65
2022/05/14 10:43:21;;;;;;;;;3.50;3.50;;;;;19.27;44.54;102172.03;5032427;28;8814;-65
2022/05/14 10:45:51;;;;;;;;;6.75;4.00;;;;;19.54;42.77;102171.03;5048439;28;8922;-65
2022/05/14 10:48:27;;;;;;;;;5.00;4.00;;;;;19.73;43.46;102161.88;5050345;28;8830;-65
2022/05/14 10:50:54;;;;;;;;;4.25;4.25;;;;;19.90;42.54;102165.72;5046921;28;9535;-66
2022/05/14 10:53:20;;;;;;;;;8.00;4.00;;;;;19.85;42.69;102167.44;5034707;28;8844;-65
2022/05/14 10:55:58;;;;;;;;;6.25;3.00;;;;;19.79;42.90;102166.44;5049287;28;8830;-65
2022/05/14 10:58:43;;;;;;;;;6.00;6.00;;;;;19.82;43.67;102173.34;5050003;28;8814;-65
2022/05/14 11:01:51;;;;;;;;;4.75;3.75;;;;;19.91;42.51;102172.84;5042681;28;8831;-66
2022/05/14 11:04:48;;;;;;;;;7.75;5.00;;;;;19.82;42.77;102170.63;5028932;28;8853;-66
2022/05/14 11:07:30;;;;;;;;;4.00;3.75;;;;;19.72;42.31;102171.94;5050266;28;8822;-65
2022/05/14 11:10:14;;;;;;;;;3.75;2.25;;;;;19.76;41.83;102177.81;5050605;28;8895;-65
2022/05/14 11:12:42;;;;;;;;;11.25;6.75;;;;;19.84;42.09;102168.50;5048474;28;8852;-65
2022/05/14 11:15:42;;;;;;;;;2.75;2.75;;;;;19.97;41.88;102171.09;5042416;28;8826;-65
2022/05/14 11:18:14;;;;;;;;;3.00;3.00;;;;;20.02;41.75;102170.44;5027403;28;8899;-65
2022/05/14 11:20:57;;;;;;;;;2.50;2.25;;;;;19.92;42.04;102166.31;5050233;28;8837;-66
2022/05/14 11:23:31;;;;;;;;;3.50;3.25;;;;;19.78;42.22;102180.31;5050348;28;9599;-65
2022/05/14 11:26:11;;;;;;;;;5.50;4.25;;;;;19.67;42.26;102166.31;5049951;28;8804;-65
2022/05/14 11:28:38;;;;;;;;;4.50;4.25;;;;;19.68;42.43;102175.34;5048220;28;8943;-65
2022/05/14 11:31:16;;;;;;;;;6.00;4.50;;;;;19.75;41.78;102166.03;5045368;28;8828;-65
2022/05/14 11:33:44;;;;;;;;;5.50;5.50;;;;;19.86;41.92;102166.38;5041984;28;8842;-65
2022/05/14 11:36:10;;;;;;;;;4.00;3.00;;;;;19.98;42.46;102162.69;5044534;28;8882;-65
2022/05/14 11:38:40;;;;;;;;;2.75;2.00;;;;;20.05;41.09;102168.06;5030276;28;8844;-65
2022/05/14 11:41:10;;;;;;;;;3.75;3.75;;;;;20.19;41.45;102175.09;5048028;28;8821;-66
2022/05/14 11:43:42;;;;;;;;;5.75;4.25;;;;;20.23;41.34;102183.69;5048837;28;8842;-65
2022/05/14 11:46:09;;;;;;;;;7.25;6.50;;;;;20.21;41.00;102164.75;5049677;28;8825;-65
2022/05/14 11:49:10;;;;;;;;;3.75;3.75;;;;;20.10;40.80;102181.94;5040719;28;8849;-66
2022/05/14 11:52:05;;;;;;;;;7.50;5.50;;;;;19.86;41.42;102166.38;5047589;28;8845;-66
2022/05/14 11:54:45;;;;;;;;;3.50;3.50;;;;;19.65;41.51;102171.19;5039424;28;9512;-65
2022/05/14 11:57:21;;;;;;;;;5.25;2.25;;;;;19.56;42.18;102169.72;5043491;28;9537;-65
2022/05/14 12:00:06;;;;;;;;;7.50;4.00;;;;;19.62;42.48;102170.78;5047757;28;9567;-65
2022/05/14 12:02:57;;;;;;;;;4.50;4.25;;;;;19.88;41.18;102170.56;5049623;28;8821;-65
2022/05/14 12:05:31;;;;;;;;;5.00;5.00;;;;;20.06;40.96;102167.03;5049594;28;8818;-66
2022/05/14 12:08:06;;;;;;;;;3.00;3.00;;;;;20.25;40.69;102171.47;5046769;28;8840;-66
2022/05/14 12:10:49;;;;;;;;;6.25;3.00;;;;;20.26;40.86;102172.31;5045694;28;8837;-66